Elyria, Ohio
Current Conditions -  °F | °C
As of 5:53 AM on Saturday 25 Oct 2014 (Local Time) from KLPR Reporting Station
Clear Clear  
Wind Chill: 43°   Ceiling: Unl
Heat Index: 47°   Visibility: 8mi
Dew Point: 43°   Wind: 8mph
Humidity: 86%   Direction: 220°SW
Pressure: 29.93"   Gusts: NA
Location:  41.37°N, 82.1°W
Report Text: KLPR 250953Z AUTO 22007KT 8SM CLR 08/06 A2993 RMK AO2 SLP136 T00830061 TSNO
Loading
Personal Weather Stations






























Interactive Weather Map
Tropical Storm Tracking
New forecast layout! Learn more

10-Day Weather Forecast

Advertisements
Track Severe Weather on mobile